sensor_id;sensor_type;location;lat;lon;timestamp;pressure;altitude;pressure_sealevel;temperature;humidity
60015;BME280;45867;52.480;6.056;2024-01-07T00:01:25;101107.03;;;-0.37;100.00
60015;BME280;45867;52.480;6.056;2024-01-07T00:03:52;101113.06;;;-0.36;100.00
60015;BME280;45867;52.480;6.056;2024-01-07T00:06:19;101110.78;;;-0.46;100.00
60015;BME280;45867;52.480;6.056;2024-01-07T00:08:45;101095.69;;;-0.51;100.00
60015;BME280;45867;52.480;6.056;2024-01-07T00:11:11;101118.00;;;-0.41;100.00
60015;BME280;45867;52.480;6.056;2024-01-07T00:13:38;101116.44;;;-0.36;100.00
60015;BME280;45867;52.480;6.056;2024-01-07T00:16:05;101101.53;;;-0.49;100.00
60015;BME280;45867;52.480;6.056;2024-01-07T00:18:31;101119.38;;;-0.46;100.00
60015;BME280;45867;52.480;6.056;2024-01-07T00:20:58;101115.72;;;-0.51;100.00
60015;BME280;45867;52.480;6.056;2024-01-07T00:23:24;101132.19;;;-0.44;100.00
60015;BME280;45867;52.480;6.056;2024-01-07T00:25:51;101138.84;;;-0.41;100.00
60015;BME280;45867;52.480;6.056;2024-01-07T00:28:18;101124.34;;;-0.51;100.00
60015;BME280;45867;52.480;6.056;2024-01-07T00:30:46;101146.91;;;-0.36;100.00
60015;BME280;45867;52.480;6.056;2024-01-07T00:33:13;101141.81;;;-0.45;100.00
60015;BME280;45867;52.480;6.056;2024-01-07T00:35:40;101150.69;;;-0.39;100.00
60015;BME280;45867;52.480;6.056;2024-01-07T00:38:06;101152.16;;;-0.51;100.00
60015;BME280;45867;52.480;6.056;2024-01-07T00:40:33;101144.63;;;-0.46;100.00
60015;BME280;45867;52.480;6.056;2024-01-07T00:42:59;101154.84;;;-0.45;100.00
60015;BME280;45867;52.480;6.056;2024-01-07T00:45:26;101145.59;;;-0.47;100.00
60015;BME280;45867;52.480;6.056;2024-01-07T00:47:52;101154.47;;;-0.41;100.00
60015;BME280;45867;52.480;6.056;2024-01-07T00:50:19;101143.56;;;-0.52;100.00
60015;BME280;45867;52.480;6.056;2024-01-07T00:52:45;101162.09;;;-0.40;100.00
60015;BME280;45867;52.480;6.056;2024-01-07T00:55:12;101172.03;;;-0.29;100.00
60015;BME280;45867;52.480;6.056;2024-01-07T00:57:38;101155.88;;;-0.39;100.00
60015;BME280;45867;52.480;6.056;2024-01-07T01:00:05;101146.16;;;-0.52;100.00
60015;BME280;45867;52.480;6.056;2024-01-07T01:02:32;101180.75;;;-0.36;100.00
60015;BME280;45867;52.480;6.056;2024-01-07T01:04:59;101193.34;;;-0.40;100.00
60015;BME280;45867;52.480;6.056;2024-01-07T01:07:25;101197.53;;;-0.39;100.00
60015;BME280;45867;52.480;6.056;2024-01-07T01:09:52;101209.34;;;-0.43;100.00
60015;BME280;45867;52.480;6.056;2024-01-07T01:12:18;101208.59;;;-0.37;100.00
60015;BME280;45867;52.480;6.056;2024-01-07T01:14:45;101220.00;;;-0.38;100.00
60015;BME280;45867;52.480;6.056;2024-01-07T01:17:11;101225.59;;;-0.41;100.00
60015;BME280;45867;52.480;6.056;2024-01-07T01:19:38;101225.50;;;-0.48;100.00
60015;BME280;45867;52.480;6.056;2024-01-07T01:22:05;101229.00;;;-0.55;100.00
60015;BME280;45867;52.480;6.056;2024-01-07T01:24:31;101221.56;;;-0.58;100.00
60015;BME280;45867;52.480;6.056;2024-01-07T01:26:58;101240.47;;;-0.50;100.00
60015;BME280;45867;52.480;6.056;2024-01-07T01:29:26;101240.69;;;-0.51;100.00
60015;BME280;45867;52.480;6.056;2024-01-07T01:31:53;101254.84;;;-0.39;100.00
60015;BME280;45867;52.480;6.056;2024-01-07T01:34:22;101259.72;;;-0.51;100.00
60015;BME280;45867;52.480;6.056;2024-01-07T01:36:49;101253.00;;;-0.60;100.00
60015;BME280;45867;52.480;6.056;2024-01-07T01:39:16;101274.06;;;-0.55;100.00
60015;BME280;45867;52.480;6.056;2024-01-07T01:41:42;101255.59;;;-0.75;100.00
60015;BME280;45867;52.480;6.056;2024-01-07T01:44:10;101257.63;;;-0.55;100.00
60015;BME280;45867;52.480;6.056;2024-01-07T01:46:36;101262.34;;;-0.65;100.00
60015;BME280;45867;52.480;6.056;2024-01-07T01:49:03;101286.91;;;-0.53;100.00
60015;BME280;45867;52.480;6.056;2024-01-07T01:51:31;101289.88;;;-0.56;100.00
60015;BME280;45867;52.480;6.056;2024-01-07T01:53:58;101289.94;;;-0.50;100.00
60015;BME280;45867;52.480;6.056;2024-01-07T01:56:27;101269.50;;;-0.68;100.00
60015;BME280;45867;52.480;6.056;2024-01-07T01:58:53;101294.72;;;-0.53;100.00
60015;BME280;45867;52.480;6.056;2024-01-07T02:01:20;101301.91;;;-0.55;100.00
60015;BME280;45867;52.480;6.056;2024-01-07T02:03:55;101287.63;;;-0.59;100.00
60015;BME280;45867;52.480;6.056;2024-01-07T02:06:22;101298.78;;;-0.65;100.00
60015;BME280;45867;52.480;6.056;2024-01-07T02:08:50;101310.25;;;-0.60;100.00
60015;BME280;45867;52.480;6.056;2024-01-07T02:11:21;101320.59;;;-0.52;100.00
60015;BME280;45867;52.480;6.056;2024-01-07T02:13:48;101326.13;;;-0.55;100.00
60015;BME280;45867;52.480;6.056;2024-01-07T02:16:15;101334.41;;;-0.51;100.00
60015;BME280;45867;52.480;6.056;2024-01-07T02:18:44;101334.69;;;-0.46;100.00
60015;BME280;45867;52.480;6.056;2024-01-07T02:21:13;101315.09;;;-0.57;100.00
60015;BME280;45867;52.480;6.056;2024-01-07T02:23:40;101322.66;;;-0.62;100.00
60015;BME280;45867;52.480;6.056;2024-01-07T02:26:07;101304.50;;;-0.70;100.00
60015;BME280;45867;52.480;6.056;2024-01-07T02:28:33;101342.56;;;-0.54;100.00
60015;BME280;45867;52.480;6.056;2024-01-07T02:31:00;101316.88;;;-0.72;100.00
60015;BME280;45867;52.480;6.056;2024-01-07T02:33:27;101334.84;;;-0.62;100.00
60015;BME280;45867;52.480;6.056;2024-01-07T02:35:54;101353.97;;;-0.55;100.00
60015;BME280;45867;52.480;6.056;2024-01-07T02:38:20;101351.44;;;-0.63;100.00
60015;BME280;45867;52.480;6.056;2024-01-07T02:40:47;101341.13;;;-0.72;100.00
60015;BME280;45867;52.480;6.056;2024-01-07T02:43:13;101341.56;;;-0.83;100.00
60015;BME280;45867;52.480;6.056;2024-01-07T02:45:40;101389.50;;;-0.48;100.00
60015;BME280;45867;52.480;6.056;2024-01-07T02:48:09;101361.31;;;-0.74;100.00
60015;BME280;45867;52.480;6.056;2024-01-07T02:50:38;101407.09;;;-0.50;100.00
60015;BME280;45867;52.480;6.056;2024-01-07T02:53:04;101405.81;;;-0.69;100.00
60015;BME280;45867;52.480;6.056;2024-01-07T02:55:31;101438.63;;;-0.59;100.00
60015;BME280;45867;52.480;6.056;2024-01-07T02:57:57;101425.38;;;-0.73;100.00
60015;BME280;45867;52.480;6.056;2024-01-07T03:00:24;101424.75;;;-0.75;100.00
60015;BME280;45867;52.480;6.056;2024-01-07T03:02:51;101461.69;;;-0.56;100.00
60015;BME280;45867;52.480;6.056;2024-01-07T03:05:17;101476.25;;;-0.47;100.00
60015;BME280;45867;52.480;6.056;2024-01-07T03:07:44;101484.13;;;-0.55;100.00
60015;BME280;45867;52.480;6.056;2024-01-07T03:10:10;101498.50;;;-0.59;100.00
60015;BME280;45867;52.480;6.056;2024-01-07T03:12:37;101512.88;;;-0.49;100.00
60015;BME280;45867;52.480;6.056;2024-01-07T03:15:04;101488.53;;;-0.56;100.00
60015;BME280;45867;52.480;6.056;2024-01-07T03:17:32;101524.81;;;-0.54;100.00
60015;BME280;45867;52.480;6.056;2024-01-07T03:19:59;101528.84;;;-0.52;100.00
60015;BME280;45867;52.480;6.056;2024-01-07T03:22:26;101524.53;;;-0.59;100.00
60015;BME280;45867;52.480;6.056;2024-01-07T03:24:52;101532.03;;;-0.64;100.00
60015;BME280;45867;52.480;6.056;2024-01-07T03:27:21;101541.34;;;-0.70;100.00
60015;BME280;45867;52.480;6.056;2024-01-07T03:29:48;101558.06;;;-0.64;100.00
60015;BME280;45867;52.480;6.056;2024-01-07T03:32:14;101542.50;;;-0.73;100.00
60015;BME280;45867;52.480;6.056;2024-01-07T03:34:41;101560.31;;;-0.61;100.00
60015;BME280;45867;52.480;6.056;2024-01-07T03:37:10;101535.16;;;-0.69;100.00
60015;BME280;45867;52.480;6.056;2024-01-07T03:39:40;101553.72;;;-0.72;100.00
60015;BME280;45867;52.480;6.056;2024-01-07T03:42:06;101545.50;;;-0.84;100.00
60015;BME280;45867;52.480;6.056;2024-01-07T03:44:39;101561.53;;;-0.72;100.00
60015;BME280;45867;52.480;6.056;2024-01-07T03:47:06;101577.53;;;-0.60;100.00
60015;BME280;45867;52.480;6.056;2024-01-07T03:49:36;101601.63;;;-0.58;100.00
60015;BME280;45867;52.480;6.056;2024-01-07T03:52:05;101574.09;;;-0.76;100.00
60015;BME280;45867;52.480;6.056;2024-01-07T03:54:32;101607.47;;;-0.56;100.00
60015;BME280;45867;52.480;6.056;2024-01-07T03:56:58;101602.06;;;-0.55;100.00
60015;BME280;45867;52.480;6.056;2024-01-07T03:59:25;101598.25;;;-0.67;100.00
60015;BME280;45867;52.480;6.056;2024-01-07T04:01:54;101624.09;;;-0.57;100.00
60015;BME280;45867;52.480;6.056;2024-01-07T04:04:20;101609.31;;;-0.65;100.00
60015;BME280;45867;52.480;6.056;2024-01-07T04:06:47;101601.25;;;-0.78;100.00
60015;BME280;45867;52.480;6.056;2024-01-07T04:09:13;101623.19;;;-0.73;100.00
60015;BME280;45867;52.480;6.056;2024-01-07T04:11:41;101616.06;;;-0.79;100.00
60015;BME280;45867;52.480;6.056;2024-01-07T04:14:08;101654.19;;;-0.63;100.00
60015;BME280;45867;52.480;6.056;2024-01-07T04:16:34;101644.75;;;-0.64;100.00
60015;BME280;45867;52.480;6.056;2024-01-07T04:19:01;101625.50;;;-0.78;100.00
60015;BME280;45867;52.480;6.056;2024-01-07T04:21:28;101652.06;;;-0.59;100.00
60015;BME280;45867;52.480;6.056;2024-01-07T04:23:58;101658.59;;;-0.63;100.00
60015;BME280;45867;52.480;6.056;2024-01-07T04:26:26;101667.19;;;-0.63;100.00
60015;BME280;45867;52.480;6.056;2024-01-07T04:28:53;101647.13;;;-0.77;100.00
60015;BME280;45867;52.480;6.056;2024-01-07T04:31:19;101680.91;;;-0.69;100.00
60015;BME280;45867;52.480;6.056;2024-01-07T04:33:46;101688.22;;;-0.64;100.00
60015;BME280;45867;52.480;6.056;2024-01-07T04:36:13;101704.63;;;-0.64;100.00
60015;BME280;45867;52.480;6.056;2024-01-07T04:38:42;101714.75;;;-0.69;100.00
60015;BME280;45867;52.480;6.056;2024-01-07T04:41:08;101723.53;;;-0.70;100.00
60015;BME280;45867;52.480;6.056;2024-01-07T04:43:35;101728.44;;;-0.75;100.00
60015;BME280;45867;52.480;6.056;2024-01-07T04:46:04;101717.91;;;-0.82;100.00
60015;BME280;45867;52.480;6.056;2024-01-07T04:48:31;101715.16;;;-0.88;100.00
60015;BME280;45867;52.480;6.056;2024-01-07T04:50:58;101723.41;;;-0.85;100.00
60015;BME280;45867;52.480;6.056;2024-01-07T04:53:26;101723.13;;;-0.90;100.00
60015;BME280;45867;52.480;6.056;2024-01-07T04:55:52;101753.63;;;-0.68;100.00
60015;BME280;45867;52.480;6.056;2024-01-07T04:58:19;101744.06;;;-0.75;100.00
60015;BME280;45867;52.480;6.056;2024-01-07T05:00:46;101740.16;;;-0.79;100.00
60015;BME280;45867;52.480;6.056;2024-01-07T05:03:13;101768.09;;;-0.65;100.00
60015;BME280;45867;52.480;6.056;2024-01-07T05:05:39;101776.88;;;-0.66;100.00
60015;BME280;45867;52.480;6.056;2024-01-07T05:08:06;101773.81;;;-0.70;100.00
60015;BME280;45867;52.480;6.056;2024-01-07T05:10:33;101762.28;;;-0.75;100.00
60015;BME280;45867;52.480;6.056;2024-01-07T05:13:03;101750.44;;;-0.86;100.00
60015;BME280;45867;52.480;6.056;2024-01-07T05:15:33;101789.56;;;-0.71;100.00
60015;BME280;45867;52.480;6.056;2024-01-07T05:18:07;101782.75;;;-0.72;100.00
60015;BME280;45867;52.480;6.056;2024-01-07T05:20:33;101795.13;;;-0.74;100.00
60015;BME280;45867;52.480;6.056;2024-01-07T05:23:03;101799.84;;;-0.78;100.00
60015;BME280;45867;52.480;6.056;2024-01-07T05:25:30;101789.31;;;-0.84;100.00
60015;BME280;45867;52.480;6.056;2024-01-07T05:27:57;101781.53;;;-0.93;100.00
60015;BME280;45867;52.480;6.056;2024-01-07T05:30:23;101816.47;;;-0.79;100.00
60015;BME280;45867;52.480;6.056;2024-01-07T05:32:50;101800.69;;;-0.94;100.00
60015;BME280;45867;52.480;6.056;2024-01-07T05:35:18;101826.53;;;-0.76;100.00
60015;BME280;45867;52.480;6.056;2024-01-07T05:37:48;101793.25;;;-1.05;100.00
60015;BME280;45867;52.480;6.056;2024-01-07T05:40:14;101847.50;;;-0.77;100.00
60015;BME280;45867;52.480;6.056;2024-01-07T05:42:41;101816.63;;;-0.88;100.00
60015;BME280;45867;52.480;6.056;2024-01-07T05:45:08;101854.38;;;-0.84;100.00
60015;BME280;45867;52.480;6.056;2024-01-07T05:47:34;101860.84;;;-0.72;100.00
60015;BME280;45867;52.480;6.056;2024-01-07T05:50:01;101877.94;;;-0.78;100.00
60015;BME280;45867;52.480;6.056;2024-01-07T05:52:28;101872.88;;;-0.87;100.00
60015;BME280;45867;52.480;6.056;2024-01-07T05:54:54;101886.22;;;-0.82;100.00
60015;BME280;45867;52.480;6.056;2024-01-07T05:57:23;101892.75;;;-0.95;100.00
60015;BME280;45867;52.480;6.056;2024-01-07T05:59:53;101902.50;;;-0.88;100.00
60015;BME280;45867;52.480;6.056;2024-01-07T06:02:20;101914.84;;;-0.82;100.00
60015;BME280;45867;52.480;6.056;2024-01-07T06:04:46;101894.22;;;-0.92;100.00
60015;BME280;45867;52.480;6.056;2024-01-07T06:07:13;101913.91;;;-0.90;100.00
60015;BME280;45867;52.480;6.056;2024-01-07T06:09:40;101932.91;;;-0.89;100.00
60015;BME280;45867;52.480;6.056;2024-01-07T06:12:06;101898.75;;;-1.02;100.00
60015;BME280;45867;52.480;6.056;2024-01-07T06:14:33;101932.09;;;-0.98;100.00
60015;BME280;45867;52.480;6.056;2024-01-07T06:16:59;101942.50;;;-0.98;100.00
60015;BME280;45867;52.480;6.056;2024-01-07T06:19:26;101942.00;;;-1.09;100.00
60015;BME280;45867;52.480;6.056;2024-01-07T06:21:52;101966.56;;;-0.96;100.00
60015;BME280;45867;52.480;6.056;2024-01-07T06:24:19;101963.81;;;-0.94;100.00
60015;BME280;45867;52.480;6.056;2024-01-07T06:26:48;101976.16;;;-0.96;100.00
60015;BME280;45867;52.480;6.056;2024-01-07T06:29:15;101968.69;;;-0.99;100.00
60015;BME280;45867;52.480;6.056;2024-01-07T06:31:45;101973.41;;;-0.95;100.00
60015;BME280;45867;52.480;6.056;2024-01-07T06:34:11;101976.81;;;-1.10;100.00
60015;BME280;45867;52.480;6.056;2024-01-07T06:36:44;101977.47;;;-1.08;100.00
60015;BME280;45867;52.480;6.056;2024-01-07T06:39:10;101995.00;;;-1.10;100.00
60015;BME280;45867;52.480;6.056;2024-01-07T06:41:37;102014.84;;;-1.01;100.00
60015;BME280;45867;52.480;6.056;2024-01-07T06:44:04;102026.38;;;-1.04;100.00
60015;BME280;45867;52.480;6.056;2024-01-07T06:46:30;102041.19;;;-1.04;100.00
60015;BME280;45867;52.480;6.056;2024-01-07T06:48:57;102030.63;;;-1.11;100.00
60015;BME280;45867;52.480;6.056;2024-01-07T06:51:23;102062.16;;;-1.14;100.00
60015;BME280;45867;52.480;6.056;2024-01-07T06:53:50;102054.16;;;-1.21;100.00
60015;BME280;45867;52.480;6.056;2024-01-07T06:56:16;102075.66;;;-1.10;100.00
60015;BME280;45867;52.480;6.056;2024-01-07T06:58:44;102092.69;;;-1.16;100.00
60015;BME280;45867;52.480;6.056;2024-01-07T07:01:10;102095.00;;;-1.13;100.00
60015;BME280;45867;52.480;6.056;2024-01-07T07:03:37;102099.03;;;-1.19;100.00
60015;BME280;45867;52.480;6.056;2024-01-07T07:06:04;102100.47;;;-1.24;100.00
60015;BME280;45867;52.480;6.056;2024-01-07T07:08:31;102077.50;;;-1.37;100.00
60015;BME280;45867;52.480;6.056;2024-01-07T07:10:57;102111.19;;;-1.27;100.00
60015;BME280;45867;52.480;6.056;2024-01-07T07:13:24;102127.13;;;-1.30;100.00
60015;BME280;45867;52.480;6.056;2024-01-07T07:15:53;102125.94;;;-1.36;100.00
60015;BME280;45867;52.480;6.056;2024-01-07T07:18:20;102161.59;;;-1.20;100.00
60015;BME280;45867;52.480;6.056;2024-01-07T07:20:47;102123.69;;;-1.31;100.00
60015;BME280;45867;52.480;6.056;2024-01-07T07:23:13;102163.44;;;-1.13;100.00
60015;BME280;45867;52.480;6.056;2024-01-07T07:25:43;102135.81;;;-1.40;100.00
60015;BME280;45867;52.480;6.056;2024-01-07T07:28:09;102146.75;;;-1.36;100.00
60015;BME280;45867;52.480;6.056;2024-01-07T07:30:39;102167.06;;;-1.31;100.00
60015;BME280;45867;52.480;6.056;2024-01-07T07:33:05;102166.56;;;-1.35;100.00
60015;BME280;45867;52.480;6.056;2024-01-07T07:35:32;102153.47;;;-1.51;100.00
60015;BME280;45867;52.480;6.056;2024-01-07T07:38:00;102168.75;;;-1.48;100.00
60015;BME280;45867;52.480;6.056;2024-01-07T07:40:27;102229.22;;;-1.20;100.00
60015;BME280;45867;52.480;6.056;2024-01-07T07:42:53;102215.63;;;-1.40;100.00
60015;BME280;45867;52.480;6.056;2024-01-07T07:45:19;102228.44;;;-1.47;100.00
60015;BME280;45867;52.480;6.056;2024-01-07T07:47:46;102275.94;;;-1.37;100.00
60015;BME280;45867;52.480;6.056;2024-01-07T07:50:13;102282.09;;;-1.38;100.00
60015;BME280;45867;52.480;6.056;2024-01-07T07:52:43;102268.59;;;-1.59;100.00
60015;BME280;45867;52.480;6.056;2024-01-07T07:55:11;102341.69;;;-1.26;100.00
60015;BME280;45867;52.480;6.056;2024-01-07T07:57:38;102321.91;;;-1.37;100.00
60015;BME280;45867;52.480;6.056;2024-01-07T08:00:07;102333.59;;;-1.41;100.00
60015;BME280;45867;52.480;6.056;2024-01-07T08:02:34;102372.69;;;-1.33;100.00
60015;BME280;45867;52.480;6.056;2024-01-07T08:05:03;102389.09;;;-1.32;100.00
60015;BME280;45867;52.480;6.056;2024-01-07T08:07:32;102384.50;;;-1.39;100.00
60015;BME280;45867;52.480;6.056;2024-01-07T08:09:59;102397.34;;;-1.37;100.00
60015;BME280;45867;52.480;6.056;2024-01-07T08:12:26;102395.72;;;-1.38;100.00
60015;BME280;45867;52.480;6.056;2024-01-07T08:14:52;102428.41;;;-1.18;100.00
60015;BME280;45867;52.480;6.056;2024-01-07T08:17:21;102404.75;;;-1.42;100.00
60015;BME280;45867;52.480;6.056;2024-01-07T08:19:50;102445.72;;;-1.26;100.00
60015;BME280;45867;52.480;6.056;2024-01-07T08:22:20;102472.41;;;-1.24;100.00
60015;BME280;45867;52.480;6.056;2024-01-07T08:24:49;102453.91;;;-1.39;100.00
60015;BME280;45867;52.480;6.056;2024-01-07T08:27:15;102481.81;;;-1.23;100.00
60015;BME280;45867;52.480;6.056;2024-01-07T08:29:43;102483.69;;;-1.16;100.00
60015;BME280;45867;52.480;6.056;2024-01-07T08:32:09;102489.25;;;-1.28;100.00
60015;BME280;45867;52.480;6.056;2024-01-07T08:34:37;102480.72;;;-1.39;100.00
60015;BME280;45867;52.480;6.056;2024-01-07T08:37:04;102516.19;;;-1.20;100.00
60015;BME280;45867;52.480;6.056;2024-01-07T08:39:31;102505.66;;;-1.46;100.00
60015;BME280;45867;52.480;6.056;2024-01-07T08:41:57;102554.81;;;-1.25;100.00
60015;BME280;45867;52.480;6.056;2024-01-07T08:44:39;102535.22;;;-1.47;100.00
60015;BME280;45867;52.480;6.056;2024-01-07T08:47:11;102575.44;;;-1.41;100.00
60015;BME280;45867;52.480;6.056;2024-01-07T08:49:38;102621.06;;;-1.29;100.00
60015;BME280;45867;52.480;6.056;2024-01-07T08:52:05;102619.88;;;-1.35;100.00
60015;BME280;45867;52.480;6.056;2024-01-07T08:54:32;102642.59;;;-1.37;100.00
60015;BME280;45867;52.480;6.056;2024-01-07T08:56:59;102660.53;;;-1.33;100.00
60015;BME280;45867;52.480;6.056;2024-01-07T08:59:25;102683.50;;;-1.29;100.00
60015;BME280;45867;52.480;6.056;2024-01-07T09:02:06;102669.75;;;-1.59;100.00
60015;BME280;45867;52.480;6.056;2024-01-07T09:04:35;102704.06;;;-1.36;100.00
60015;BME280;45867;52.480;6.056;2024-01-07T09:07:02;102723.88;;;-1.25;100.00
60015;BME280;45867;52.480;6.056;2024-01-07T09:09:31;102735.41;;;-1.27;100.00
60015;BME280;45867;52.480;6.056;2024-01-07T09:11:58;102753.88;;;-1.30;100.00
60015;BME280;45867;52.480;6.056;2024-01-07T09:14:24;102744.19;;;-1.38;100.00
60015;BME280;45867;52.480;6.056;2024-01-07T09:16:51;102734.88;;;-1.50;100.00
60015;BME280;45867;52.480;6.056;2024-01-07T09:19:21;102738.84;;;-1.46;100.00
60015;BME280;45867;52.480;6.056;2024-01-07T09:21:50;102784.28;;;-1.31;100.00
60015;BME280;45867;52.480;6.056;2024-01-07T09:24:25;102797.13;;;-1.29;100.00
60015;BME280;45867;52.480;6.056;2024-01-07T09:27:01;102798.66;;;-1.56;100.00
60015;BME280;45867;52.480;6.056;2024-01-07T09:29:28;102854.06;;;-1.46;100.00
60015;BME280;45867;52.480;6.056;2024-01-07T09:31:54;102826.97;;;-1.63;100.00
60015;BME280;45867;52.480;6.056;2024-01-07T09:34:21;102872.69;;;-1.41;100.00
60015;BME280;45867;52.480;6.056;2024-01-07T09:36:47;102876.50;;;-1.45;100.00
60015;BME280;45867;52.480;6.056;2024-01-07T09:39:16;102853.09;;;-1.64;100.00
60015;BME280;45867;52.480;6.056;2024-01-07T09:41:43;102889.13;;;-1.40;100.00
60015;BME280;45867;52.480;6.056;2024-01-07T09:44:09;102875.69;;;-1.55;100.00
60015;BME280;45867;52.480;6.056;2024-01-07T09:46:37;102866.94;;;-1.64;100.00
60015;BME280;45867;52.480;6.056;2024-01-07T09:49:06;102878.84;;;-1.51;100.00
60015;BME280;45867;52.480;6.056;2024-01-07T09:51:35;102885.28;;;-1.55;100.00
60015;BME280;45867;52.480;6.056;2024-01-07T09:54:03;102899.50;;;-1.60;100.00
60015;BME280;45867;52.480;6.056;2024-01-07T09:56:36;102936.06;;;-1.42;100.00
60015;BME280;45867;52.480;6.056;2024-01-07T09:59:06;102935.81;;;-1.39;100.00
60015;BME280;45867;52.480;6.056;2024-01-07T10:01:32;102944.28;;;-1.37;100.00
60015;BME280;45867;52.480;6.056;2024-01-07T10:04:00;102944.53;;;-1.49;100.00
60015;BME280;45867;52.480;6.056;2024-01-07T10:06:30;102942.06;;;-1.61;100.00
60015;BME280;45867;52.480;6.056;2024-01-07T10:08:58;102947.66;;;-1.65;100.00
60015;BME280;45867;52.480;6.056;2024-01-07T10:11:26;102955.84;;;-1.70;100.00
60015;BME280;45867;52.480;6.056;2024-01-07T10:13:54;103023.81;;;-1.44;100.00
60015;BME280;45867;52.480;6.056;2024-01-07T10:16:20;103029.28;;;-1.47;100.00
60015;BME280;45867;52.480;6.056;2024-01-07T10:19:04;103041.19;;;-1.44;100.00
60015;BME280;45867;52.480;6.056;2024-01-07T10:21:31;103022.94;;;-1.54;100.00
60015;BME280;45867;52.480;6.056;2024-01-07T10:24:08;103005.97;;;-1.58;100.00
60015;BME280;45867;52.480;6.056;2024-01-07T10:26:35;103061.19;;;-1.35;100.00
60015;BME280;45867;52.480;6.056;2024-01-07T10:29:04;103070.63;;;-1.34;100.00
60015;BME280;45867;52.480;6.056;2024-01-07T10:31:32;103061.31;;;-1.37;100.00
60015;BME280;45867;52.480;6.056;2024-01-07T10:33:59;103057.47;;;-1.42;100.00
60015;BME280;45867;52.480;6.056;2024-01-07T10:36:26;103068.88;;;-1.33;100.00
60015;BME280;45867;52.480;6.056;2024-01-07T10:38:54;103067.63;;;-1.39;100.00
60015;BME280;45867;52.480;6.056;2024-01-07T10:41:21;103096.47;;;-1.12;100.00
60015;BME280;45867;52.480;6.056;2024-01-07T10:43:48;103080.44;;;-1.07;100.00
60015;BME280;45867;52.480;6.056;2024-01-07T10:46:15;103126.38;;;-0.86;100.00
60015;BME280;45867;52.480;6.056;2024-01-07T10:48:55;103130.63;;;-0.85;100.00
60015;BME280;45867;52.480;6.056;2024-01-07T10:51:27;103143.63;;;-0.85;100.00
60015;BME280;45867;52.480;6.056;2024-01-07T10:53:55;103146.19;;;-1.05;100.00
60015;BME280;45867;52.480;6.056;2024-01-07T10:56:24;103153.63;;;-0.91;100.00
60015;BME280;45867;52.480;6.056;2024-01-07T10:58:54;103169.13;;;-0.79;100.00
60015;BME280;45867;52.480;6.056;2024-01-07T11:01:21;103171.06;;;-0.81;100.00
60015;BME280;45867;52.480;6.056;2024-01-07T11:04:08;103178.19;;;-0.83;100.00
60015;BME280;45867;52.480;6.056;2024-01-07T11:06:52;103184.25;;;-0.73;100.00
60015;BME280;45867;52.480;6.056;2024-01-07T11:09:33;103188.38;;;-0.71;100.00
60015;BME280;45867;52.480;6.056;2024-01-07T11:12:01;103172.31;;;-0.76;100.00
60015;BME280;45867;52.480;6.056;2024-01-07T11:14:39;103203.34;;;-0.53;100.00
60015;BME280;45867;52.480;6.056;2024-01-07T11:17:06;103197.84;;;-0.50;100.00
60015;BME280;45867;52.480;6.056;2024-01-07T11:19:35;103213.34;;;-0.49;100.00
60015;BME280;45867;52.480;6.056;2024-01-07T11:22:27;103222.31;;;-0.32;100.00
60015;BME280;45867;52.480;6.056;2024-01-07T11:24:57;103238.34;;;-0.17;100.00
60015;BME280;45867;52.480;6.056;2024-01-07T11:27:27;103233.84;;;-0.15;100.00
60015;BME280;45867;52.480;6.056;2024-01-07T11:29:58;103258.09;;;-0.14;100.00
60015;BME280;45867;52.480;6.056;2024-01-07T11:32:33;103214.56;;;-0.53;100.00
60015;BME280;45867;52.480;6.056;2024-01-07T11:35:01;103255.31;;;-0.42;100.00
60015;BME280;45867;52.480;6.056;2024-01-07T11:37:28;103274.78;;;-0.36;100.00
60015;BME280;45867;52.480;6.056;2024-01-07T11:39:57;103249.94;;;-0.50;100.00
60015;BME280;45867;52.480;6.056;2024-01-07T11:42:25;103264.78;;;-0.41;100.00
60015;BME280;45867;52.480;6.056;2024-01-07T11:44:54;103281.69;;;-0.35;100.00
60015;BME280;45867;52.480;6.056;2024-01-07T11:47:23;103289.88;;;-0.30;100.00
60015;BME280;45867;52.480;6.056;2024-01-07T11:49:50;103284.41;;;-0.37;100.00
60015;BME280;45867;52.480;6.056;2024-01-07T11:52:17;103314.63;;;-0.25;100.00
60015;BME280;45867;52.480;6.056;2024-01-07T11:54:44;103303.75;;;-0.30;100.00
60015;BME280;45867;52.480;6.056;2024-01-07T11:57:12;103313.75;;;-0.35;100.00
60015;BME280;45867;52.480;6.056;2024-01-07T11:59:39;103347.75;;;-0.36;100.00
60015;BME280;45867;52.480;6.056;2024-01-07T12:02:10;103344.88;;;-0.33;100.00
60015;BME280;45867;52.480;6.056;2024-01-07T12:04:37;103319.44;;;-0.51;100.00
60015;BME280;45867;52.480;6.056;2024-01-07T12:07:04;103351.88;;;-0.34;100.00
60015;BME280;45867;52.480;6.056;2024-01-07T12:09:31;103354.34;;;-0.32;100.00
60015;BME280;45867;52.480;6.056;2024-01-07T12:12:00;103353.81;;;-0.26;100.00
60015;BME280;45867;52.480;6.056;2024-01-07T12:14:27;103347.09;;;-0.29;100.00
60015;BME280;45867;52.480;6.056;2024-01-07T12:16:55;103307.13;;;-0.49;100.00
60015;BME280;45867;52.480;6.056;2024-01-07T12:19:22;103334.72;;;-0.36;100.00
60015;BME280;45867;52.480;6.056;2024-01-07T12:21:49;103356.91;;;-0.42;100.00
60015;BME280;45867;52.480;6.056;2024-01-07T12:24:33;103368.09;;;-0.20;100.00
60015;BME280;45867;52.480;6.056;2024-01-07T12:27:06;103353.53;;;-0.33;100.00
60015;BME280;45867;52.480;6.056;2024-01-07T12:29:33;103363.63;;;-0.39;100.00
60015;BME280;45867;52.480;6.056;2024-01-07T12:32:00;103366.84;;;-0.26;100.00
60015;BME280;45867;52.480;6.056;2024-01-07T12:34:26;103367.94;;;-0.29;100.00
60015;BME280;45867;52.480;6.056;2024-01-07T12:36:54;103346.94;;;-0.37;100.00
60015;BME280;45867;52.480;6.056;2024-01-07T12:39:20;103346.53;;;-0.32;100.00
60015;BME280;45867;52.480;6.056;2024-01-07T12:41:51;103364.72;;;-0.42;100.00
60015;BME280;45867;52.480;6.056;2024-01-07T12:44:20;103372.16;;;-0.37;100.00